Flight Track Log - Related Links

Times and Time Zones

All times are in EDT time to prevent confusion due to time zone crossing. See the CTL22 flight status page for this flight to view local times or setup timezone preferences in your user account.

Time Position Orientation Groundspeed Altitude Reporting Facility
EDT Latitude Longitude Course Direction KTS MPH feet Rate Location/Type
Thu 09:16:13 PM 41.5522 -81.7014 326° Northwest 111 128 2,000  Level Cleveland Center
Thu 09:17:13 PM 41.5642 -81.7403 292° West 123 142 3,000 945 Climbing Cleveland Center
Thu 09:18:20 PM 41.5931 -81.7825 312° West 150 173 4,000 851 Climbing Cleveland Center
Thu 09:19:27 PM 41.6156 -81.8303 302° West 132 152 4,900 857 Climbing Cleveland Center
Thu 09:20:33 PM 41.6400 -81.8778 305° West 133 153 5,900 695 Climbing Cleveland Center
Thu 09:21:02 PM 41.6500 -81.9031 298° West 133 153 6,000 197 Climbing Cleveland Center
Thu 09:21:34 PM 41.6622 -81.9283 303° West 164 189 6,100  Climbing Cleveland Center
Thu 09:22:41 PM 41.6867 -81.9844 300° West 165 190 6,000 -47 Descending Cleveland Center
Thu 09:23:41 PM 41.7089 -82.0350 301° West 163 188 6,000 50 Level Cleveland Center
Thu 09:24:42 PM 41.7333 -82.0883 302° West 165 190 6,100  Climbing Cleveland Center
Thu 09:25:49 PM 41.7594 -82.1503 299° West 167 192 6,000 -52 Descending Cleveland Center
Thu 09:26:37 PM 41.7778 -82.1897 302° West 166 191 6,000  Level Cleveland Center
Thu 09:27:32 PM 41.8000 -82.2406 300° West 161 185 6,000  Level Cleveland Center
Thu 09:28:33 PM 41.8222 -82.2939 299° West 162 186 6,000  Level Cleveland Center
Thu 09:29:12 PM 41.8383 -82.3250 305° West 163 188 6,000  Level Cleveland Center
Thu 09:30:19 PM 41.8644 -82.3844 301° West 162 186 6,000 49 Level Cleveland Center
Thu 09:31:14 PM 41.8825 -82.4294 298° West 160 184 6,100  Climbing Cleveland Center
Thu 09:32:21 PM 41.9108 -82.4889 303° West 165 190 6,000  Descending Cleveland Center
Thu 09:33:21 PM 41.9328 -82.5425 299° West 163 188 6,100  Climbing Cleveland Center
Thu 09:34:16 PM 41.9569 -82.5881 306° West 163 188 6,000  Descending Cleveland Center
Thu 09:35:17 PM 41.9853 -82.6419 305° West 164 189 6,100 49 Climbing Cleveland Center
Thu 09:36:18 PM 42.0072 -82.6931 300° West 165 190 6,100 -52 Level Cleveland Center
Thu 09:37:12 PM 42.0314 -82.7383 306° West 164 189 6,000 -45 Descending Cleveland Center
Thu 09:38:31 PM 42.0633 -82.8067 302° West 163 188 6,000 43 Level Cleveland Center
Thu 09:39:32 PM 42.0853 -82.8606 299° West 162 186 6,100 50 Climbing Cleveland Center
Thu 09:40:32 PM 42.1072 -82.9117 300° West 162 186 6,100 -52 Level Cleveland Center
Thu 09:41:27 PM 42.1292 -82.9575 303° West 159 183 6,000 -52 Descending Cleveland Center
Thu 09:42:27 PM 42.1447 -83.0111 291° West 152 175 6,000 52 Level Cleveland Center
Thu 09:43:22 PM 42.1606 -83.0567 295° West 145 167 6,100  Climbing Cleveland Center
Thu 09:44:23 PM 42.1761 -83.1078 292° West 142 163 6,000 -52 Descending Cleveland Center
Thu 09:45:17 PM 42.1897 -83.1531 292° West 141 162 6,000  Level Cleveland Center
Thu 09:46:30 PM 42.2072 -83.2097 293° West 132 152 6,000  Level Cleveland Center
Thu 09:47:37 PM 42.2186 -83.2581 301° West 132 152 6,000  Level Cleveland Center
Thu 09:48:31 PM 42.2322 -83.3006 293° West 129 148 6,000  Level Cleveland Center
Thu 09:49:38 PM 42.2456 -83.3517 289° West 132 152 6,000 47 Level Cleveland Center
Thu 09:50:39 PM 42.2589 -83.3972 292° West 130 150 6,100  Climbing Cleveland Center
Thu 09:51:39 PM 42.2706 -83.4397 290° West 134 154 6,000 -180 Descending Cleveland Center
Thu 09:52:52 PM 42.2878 -83.4967 292° West 134 154 5,700 -517 Descending Cleveland Center
Thu 09:53:35 PM 42.3014 -83.5339 296° West 153 176 5,000 -808 Descending Cleveland Center
Thu 09:54:36 PM 42.3186 -83.5936 291° West 170 196 4,300 -522 Descending Cleveland Center
Thu 09:55:30 PM 42.3339 -83.6478 291° West 161 185 4,000 -129 Descending Cleveland Center
Thu 09:56:55 PM 42.3508 -83.7189 288° West 144 166 4,000  Level Cleveland Center
Thu 09:57:38 PM 42.3642 -83.7561 296° West 142 163 4,000  Level Cleveland Center
Thu 09:58:39 PM 42.3775 -83.8072 289° West 145 167 4,000 50 Level Cleveland Center
Thu 09:59:39 PM 42.3928 -83.8558 293° West 144 166 4,100  Climbing Cleveland Center
Thu 10:00:34 PM 42.4081 -83.9017 294° West 144 166 4,000 -15 Descending Cleveland Center
Thu 10:02:00 PM 42.4441 -83.9645 308° West  Level FlightAware Approximate
Thu 10:06:22 PM 42.4889 -84.1872 293° West 135 155 4,000  Level Chicago Center
Thu 10:07:24 PM 42.5031 -84.2361 291° West 137 158 4,000  Level Chicago Center
Thu 10:08:25 PM 42.5161 -84.2856 290° West 138 159 4,000 -195 Level Chicago Center
Thu 10:09:00 PM 42.5482 -84.3272 289° West  Level Estimated
Thu 10:09:27 PM 42.5300 -84.3336 291° West 138 159 3,600  Level Chicago Center
Thu 10:10:00 PM 42.5642 -84.3785 293° West  Level FlightAware Approximate
Thu 10:10:28 PM 42.5453 -84.3864 291° West 142 163 3,100  Level Chicago Center
Thu 10:11:00 PM 42.5803 -84.4297 293° West  Level FlightAware Approximate
Thu 10:11:30 PM 42.5619 -84.4469 291° West 148 170 3,000  Level Chicago Center
Thu 10:12:32 PM 42.5753 -84.4997 289° West 154 177 3,000 -49 Level Chicago Center
Thu 10:13:33 PM 42.5908 -84.5528 292° West 155 178 2,900 -49 Descending Chicago Center
Thu 10:14:35 PM 42.6047 -84.6031 291° West 146 168 2,900 49 Level Chicago Center
Thu 10:15:36 PM 42.6211 -84.6578 292° West 153 176 3,000 49 Climbing Chicago Center
Thu 10:16:38 PM 42.6406 -84.7208 293° West 153 176 3,000  Level Chicago Center
Thu 10:17:39 PM 42.6475 -84.7733 280° West 145 167 3,000  Level Chicago Center
Thu 10:18:41 PM 42.6583 -84.8278 285° West 151 174 3,000  Level Chicago Center
Thu 10:19:42 PM 42.6756 -84.8822 293° West 155 178 3,000  Level Chicago Center
Thu 10:20:44 PM 42.6886 -84.9364 288° West 154 177 3,000 -49 Level Chicago Center
Thu 10:21:45 PM 42.7089 -84.9894 297° West 157 181 2,900  Descending Chicago Center
Thu 10:22:47 PM 42.7225 -85.0461 288° West 159 183 3,000 49 Climbing Chicago Center
Thu 10:23:48 PM 42.7414 -85.1089 292° West 152 175 3,000  Level Chicago Center
Thu 10:24:50 PM 42.7558 -85.1647 289° West 154 177 3,000 49 Level Chicago Center
Thu 10:25:51 PM 42.7747 -85.2192 295° West 160 184 3,100  Climbing Chicago Center
Thu 10:26:53 PM 42.7967 -85.2736 299° West 164 189 3,000 -98 Descending Chicago Center
Thu 10:27:54 PM 42.8200 -85.3267 301° West 164 189 2,900 -341 Descending Chicago Center
Thu 10:28:56 PM 42.8431 -85.3856 298° West 169 194 2,300 -585 Descending Chicago Center
Thu 10:29:57 PM 42.8672 -85.4464 298° West 177 204 1,700 -683 Descending Chicago Center
Thu 10:30:59 PM 42.8797 -85.5017 287° West 160 184 900 -774 Descending Chicago Center
Thu 10:32:00 PM 42.8667 -85.5167 270° West  Level FlightAware Approximate
Thu 10:39:00 PM 42.8808 -85.5228 270° West  Level Estimated

Login

Don't have an account? Register now (free) for customized features, flight alerts, and more!